Forside
METAR-TAF:

METAR-TAF

Lufthavne :

Jinnah International Airport

Karachi, Pakistan

Breddekreds: 24-54N, længdekreds: 067-08E, højde: 21 m

Aktuelle vejr

Denne rapport blev lavet for 25 minutter siden, kl. 11:55 UTC
Vind 8 kt fra sydvest
Temperatur 22°C
Fugtighed 19%
Tryk 1013 hPa
Sigt: 7000 m

METAR: OPKC 221155Z 23008KT 7000 NSC 22/M03 Q1013 NOSIG

Tid: 17:20 (12:20 UTC)

Vejrudsigter

Denne rapport blev lavet for 2 timer og 20 minutter siden, kl. 10:00 UTC
Foreløbig gælder fra 22 på 12 UTC til 23 på 18 UTC
Vind 10 kt fra vest
Sigt: 6000 m
ændring
fra 22 på 19 UTC til 22 på 21 UTC
Vind 5 kt fra nordvest
Sigt: 4000 m
tåge/dis
Midlertidig
fra 23 på 00 UTC til 23 på 04 UTC
Vind 5 kt fra nordøst
Sigt: 2500 m
røg
Fra 23 på 0600 UTC
Vind 5 kt fra nordøst med vindstød på up til 15 kt
Sigt: 6000 m

TAF: OPKC 221000Z 2212/2318 26010KT 6000 NSC BECMG 2219/2221 31005KT 4000 HZ NSC TEMPO 2300/2304 05005KT 2500 FU NSC FM230600 05005G15KT 6000 NSC

Vejrobservationer og prognoser fra mere end 4000 lufthavne (METAR og TAF).

De gule og røde prikker repræsenterer de meteorologiske stationer.

Flyt musen over at se navnet på stationen.

Så klik over at se vejr observationer og prognoser.

At skifte det kort: Klik på de grønne knapper med et sort kors for at zoome ind; på den grønne knap med en bindestreg for at zoome ud; eller på de grønne pile for tilstødende kort.


METAR-TAF: